Time;durP1;ratioP1;P1;durP2;ratioP2;P2;SDS_P1;SDS_P2;PMS_P1;PMS_P2;Temp;Humidity;BMP_temperature;BMP_pressure;BME280_temperature;BME280_humidity;BME280_pressure;Samples;Min_cycle;Max_cycle;Signal;HPM_P1;HPM_P2
2021/11/14 00:00:10;;;;;;;64.72;31.15;;;;;;;6.75;100.00;100417.03;5035584;28;20045;-51
2021/11/14 00:02:37;;;;;;;63.25;32.10;;;;;;;6.75;100.00;100419.66;5036383;28;20520;-52
2021/11/14 00:05:05;;;;;;;70.22;33.55;;;;;;;6.73;100.00;100419.69;5037807;28;20048;-53
2021/11/14 00:07:31;;;;;;;65.57;32.70;;;;;;;6.69;100.00;100418.06;5027544;28;20120;-52
2021/11/14 00:09:58;;;;;;;68.00;31.05;;;;;;;6.69;100.00;100421.56;5038129;28;20037;-52
2021/11/14 00:12:24;;;;;;;63.40;31.23;;;;;;;6.71;100.00;100429.41;5033915;28;20052;-52
2021/11/14 00:14:51;;;;;;;65.95;31.65;;;;;;;6.74;100.00;100426.69;5042461;28;20052;-52
2021/11/14 00:17:18;;;;;;;65.20;31.70;;;;;;;6.74;100.00;100424.06;5026825;28;20057;-53
2021/11/14 00:19:45;;;;;;;64.45;30.52;;;;;;;6.74;100.00;100423.19;5032243;28;20128;-51
2021/11/14 00:22:11;;;;;;;59.13;29.88;;;;;;;6.76;100.00;100426.66;5042046;28;20128;-53
2021/11/14 00:24:38;;;;;;;57.78;29.65;;;;;;;6.73;100.00;100429.38;5035710;28;20152;-50
2021/11/14 00:27:05;;;;;;;58.65;29.20;;;;;;;6.73;100.00;100437.25;5031783;28;20049;-52
2021/11/14 00:29:31;;;;;;;53.50;28.88;;;;;;;6.69;100.00;100424.19;5033784;28;20061;-53
2021/11/14 00:31:58;;;;;;;55.22;28.35;;;;;;;6.74;100.00;100437.22;5033956;28;20383;-52
2021/11/14 00:34:24;;;;;;;51.75;28.23;;;;;;;6.70;100.00;100427.69;5035262;28;20041;-51
2021/11/14 00:36:53;;;;;;;53.85;27.63;;;;;;;6.71;100.00;100433.81;5031554;28;20053;-53
2021/11/14 00:39:20;;;;;;;49.15;27.38;;;;;;;6.69;100.00;100444.38;5039418;28;20056;-50
2021/11/14 00:41:47;;;;;;;51.83;28.48;;;;;;;6.68;100.00;100438.25;5033757;28;20041;-52
2021/11/14 00:44:15;;;;;;;47.00;27.05;;;;;;;6.72;100.00;100441.66;5034605;28;20390;-50
2021/11/14 00:46:41;;;;;;;45.10;25.45;;;;;;;6.68;100.00;100440.88;5025346;28;20796;-52
2021/11/14 00:49:08;;;;;;;48.65;26.20;;;;;;;6.67;100.00;100446.19;5032656;28;20052;-52
2021/11/14 00:51:35;;;;;;;44.80;25.80;;;;;;;6.64;100.00;100444.50;5037205;28;20073;-52
2021/11/14 00:54:04;;;;;;;50.13;25.73;;;;;;;6.66;100.00;100447.09;5037178;28;20045;-53
2021/11/14 00:56:31;;;;;;;46.07;24.80;;;;;;;6.68;100.00;100454.03;5026322;28;20442;-51
2021/11/14 00:58:58;;;;;;;50.35;25.73;;;;;;;6.72;100.00;100454.81;5026908;28;20050;-53
2021/11/14 01:01:25;;;;;;;47.92;24.70;;;;;;;6.67;100.00;100452.31;5030040;28;20505;-52
2021/11/14 01:03:53;;;;;;;44.28;24.98;;;;;;;6.69;100.00;100454.91;5021972;28;20173;-51
2021/11/14 01:06:21;;;;;;;47.40;25.23;;;;;;;6.67;100.00;100461.97;5019068;28;20052;-52
2021/11/14 01:08:47;;;;;;;44.75;23.55;;;;;;;6.63;100.00;100455.94;5026753;28;20037;-55
2021/11/14 01:11:14;;;;;;;47.72;24.67;;;;;;;6.68;100.00;100456.69;5025588;28;20208;-53
2021/11/14 01:13:41;;;;;;;46.25;24.15;;;;;;;6.67;100.00;100457.59;5026384;28;20069;-54
2021/11/14 01:16:14;;;;;;;47.88;24.17;;;;;;;6.69;100.00;100461.03;5025490;28;20053;-53
2021/11/14 01:18:40;;;;;;;47.88;24.17;;;;;;;6.74;100.00;100463.53;5030686;28;20174;-52
2021/11/14 01:21:12;;;;;;;43.35;23.83;;;;;;;6.69;100.00;100458.41;5028304;28;20067;-54
2021/11/14 01:23:40;;;;;;;49.60;24.63;;;;;;;6.68;100.00;100464.56;5032636;28;20443;-51
2021/11/14 01:26:07;;;;;;;47.22;24.50;;;;;;;6.71;100.00;100462.75;5028240;28;20055;-52
2021/11/14 01:28:34;;;;;;;47.10;24.48;;;;;;;6.71;100.00;100468.88;5028199;28;20498;-52
2021/11/14 01:31:01;;;;;;;48.88;24.23;;;;;;;6.68;100.00;100469.84;5029201;28;20046;-52
2021/11/14 01:33:29;;;;;;;52.53;25.40;;;;;;;6.66;100.00;100468.16;5030213;28;20223;-52
2021/11/14 01:35:57;;;;;;;50.55;24.20;;;;;;;6.71;100.00;100475.91;5029056;28;20049;-54
2021/11/14 01:38:26;;;;;;;47.28;23.02;;;;;;;6.72;100.00;100477.66;5026725;28;20045;-53
2021/11/14 01:41:00;;;;;;;51.67;24.13;;;;;;;6.68;100.00;100475.09;5034587;28;20049;-51
2021/11/14 01:43:34;;;;;;;52.03;23.63;;;;;;;6.69;100.00;100473.31;5029533;28;20049;-52
2021/11/14 01:46:01;;;;;;;52.53;24.45;;;;;;;6.73;100.00;100471.47;5028340;28;20038;-52
2021/11/14 01:48:28;;;;;;;46.50;23.30;;;;;;;6.72;100.00;100475.88;5027768;28;20414;-51
2021/11/14 01:50:55;;;;;;;53.78;24.50;;;;;;;6.67;100.00;100476.00;5029237;28;20046;-52
2021/11/14 01:53:22;;;;;;;52.60;25.30;;;;;;;6.71;100.00;100475.91;5028512;28;20049;-53
2021/11/14 01:55:49;;;;;;;53.05;24.48;;;;;;;6.71;100.00;100482.03;5033071;28;20037;-53
2021/11/14 01:58:18;;;;;;;50.83;23.48;;;;;;;6.74;100.00;100479.31;5029921;28;20051;-52
2021/11/14 02:00:50;;;;;;;55.08;25.08;;;;;;;6.76;100.00;100481.91;5029115;28;20053;-53
2021/11/14 02:03:17;;;;;;;53.90;24.88;;;;;;;6.75;100.00;100483.69;5030641;28;20059;-52
2021/11/14 02:05:44;;;;;;;51.53;24.58;;;;;;;6.74;100.00;100481.97;5036586;28;20042;-52
2021/11/14 02:08:12;;;;;;;52.97;25.10;;;;;;;6.74;100.00;100483.72;5029582;28;20449;-54
2021/11/14 02:10:40;;;;;;;54.28;25.20;;;;;;;6.75;100.00;100485.44;5029256;28;20041;-52
2021/11/14 02:13:07;;;;;;;54.95;24.20;;;;;;;6.73;100.00;100487.25;5034185;28;20305;-53
2021/11/14 02:15:35;;;;;;;55.88;24.20;;;;;;;6.61;100.00;100455.13;5036502;28;20491;-52
2021/11/14 02:18:04;;;;;;;58.13;24.13;;;;;;;6.77;100.00;100487.09;5032533;28;20045;-53
2021/11/14 02:20:30;;;;;;;54.22;23.08;;;;;;;6.77;100.00;100481.84;5029592;28;20053;-53
2021/11/14 02:22:58;;;;;;;56.25;23.08;;;;;;;6.80;100.00;100475.63;5031422;28;20045;-52
2021/11/14 02:25:24;;;;;;;55.40;23.77;;;;;;;6.83;100.00;100486.06;5028460;28;20053;-50
2021/11/14 02:27:54;;;;;;;50.55;22.50;;;;;;;6.81;100.00;100487.88;5031043;28;20054;-51
2021/11/14 02:30:22;;;;;;;57.00;22.80;;;;;;;6.79;100.00;100492.31;5029617;28;20046;-51
2021/11/14 02:32:50;;;;;;;59.00;24.00;;;;;;;6.79;100.00;100497.59;5036646;28;20045;-51
2021/11/14 02:35:37;;;;;;;53.80;23.80;;;;;;;6.66;100.00;100473.41;5029566;28;20059;-51
2021/11/14 02:38:04;;;;;;;52.75;23.13;;;;;;;6.83;100.00;100493.97;5028990;28;20048;-52
2021/11/14 02:40:31;;;;;;;45.05;22.30;;;;;;;6.84;100.00;100493.94;5030494;28;20041;-54
2021/11/14 02:42:57;;;;;;;48.50;21.83;;;;;;;6.85;100.00;100498.28;5034901;28;20041;-52
2021/11/14 02:45:26;;;;;;;51.10;22.38;;;;;;;6.88;100.00;100499.97;5031522;28;20057;-53
2021/11/14 02:47:54;;;;;;;50.83;23.17;;;;;;;6.83;100.00;100486.94;5026213;28;20072;-52
2021/11/14 02:50:22;;;;;;;51.58;22.02;;;;;;;6.83;100.00;100493.97;5035395;28;20037;-52
2021/11/14 02:52:50;;;;;;;48.20;22.38;;;;;;;6.81;100.00;100494.00;5038434;28;20040;-52
2021/11/14 02:55:19;;;;;;;51.33;21.83;;;;;;;6.81;100.00;100499.28;5037176;28;20049;-51
2021/11/14 02:57:46;;;;;;;50.70;22.23;;;;;;;6.73;100.00;100479.38;5027028;28;20041;-52
2021/11/14 03:00:29;;;;;;;51.40;22.02;;;;;;;6.85;100.00;100502.69;5034674;28;20048;-53
2021/11/14 03:02:56;;;;;;;48.30;21.60;;;;;;;6.85;100.00;100500.06;5035128;28;20044;-52
2021/11/14 03:05:23;;;;;;;47.30;21.80;;;;;;;6.91;100.00;100508.63;5034725;28;20414;-53
2021/11/14 03:07:51;;;;;;;43.30;20.70;;;;;;;6.88;100.00;100506.09;5029007;28;20056;-54
2021/11/14 03:10:22;;;;;;;43.95;21.00;;;;;;;6.85;100.00;100505.31;5035488;28;20126;-51
2021/11/14 03:12:55;;;;;;;49.03;22.13;;;;;;;6.83;100.00;100510.63;5038281;28;20068;-53
2021/11/14 03:15:22;;;;;;;42.63;21.17;;;;;;;6.89;100.00;100506.94;5026988;28;20627;-50
2021/11/14 03:17:49;;;;;;;40.95;19.75;;;;;;;6.90;100.00;100509.53;5027425;28;20052;-54
2021/11/14 03:20:15;;;;;;;41.28;20.75;;;;;;;6.91;100.00;100510.41;5036827;28;20040;-52
2021/11/14 03:22:42;;;;;;;38.50;20.15;;;;;;;6.91;100.00;100510.41;5037696;28;20037;-53
2021/11/14 03:25:09;;;;;;;38.65;19.77;;;;;;;6.90;100.00;100519.22;5038255;28;20045;-53
2021/11/14 03:27:35;;;;;;;39.75;21.02;;;;;;;6.88;100.00;100521.88;5032224;28;20045;-52
2021/11/14 03:30:04;;;;;;;36.35;19.80;;;;;;;6.88;100.00;100523.66;5030114;28;20046;-52
2021/11/14 03:32:31;;;;;;;35.75;20.38;;;;;;;6.88;100.00;100524.53;5034523;28;20408;-54
2021/11/14 03:34:57;;;;;;;38.50;20.23;;;;;;;6.83;100.00;100509.75;5032999;28;20045;-51
2021/11/14 03:37:24;;;;;;;35.50;20.20;;;;;;;6.90;100.00;100524.47;5028662;28;20041;-52
2021/11/14 03:39:50;;;;;;;36.92;20.13;;;;;;;6.91;100.00;100526.19;5031354;28;20041;-53
2021/11/14 03:42:17;;;;;;;34.33;19.27;;;;;;;6.91;100.00;100532.34;5029530;28;20045;-52
2021/11/14 03:44:44;;;;;;;36.72;19.55;;;;;;;6.91;100.00;100537.59;5037008;28;20045;-53
2021/11/14 03:47:11;;;;;;;34.13;19.48;;;;;;;6.93;100.00;100540.16;5029283;28;20049;-53
2021/11/14 03:49:38;;;;;;;35.33;19.30;;;;;;;6.94;100.00;100544.50;5040687;28;20528;-53
2021/11/14 03:52:09;;;;;;;34.03;18.77;;;;;;;6.83;100.00;100522.91;5037530;28;20049;-52
2021/11/14 03:54:36;;;;;;;29.75;18.08;;;;;;;6.90;100.00;100543.75;5033292;28;20530;-51
2021/11/14 03:57:22;;;;;;;30.92;17.85;;;;;;;6.94;100.00;100542.75;5031237;28;20403;-51
2021/11/14 03:59:49;;;;;;;28.70;18.20;;;;;;;6.95;100.00;100546.25;5028730;28;20045;-54
2021/11/14 04:02:15;;;;;;;28.83;18.08;;;;;;;6.95;100.00;100547.09;5031355;28;20045;-50
2021/11/14 04:04:42;;;;;;;27.23;17.55;;;;;;;6.97;100.00;100552.31;5038209;28;20042;-53
2021/11/14 04:07:09;;;;;;;26.60;17.50;;;;;;;7.00;100.00;100549.59;5026784;28;20053;-52
2021/11/14 04:09:36;;;;;;;24.35;15.48;;;;;;;7.02;100.00;100547.78;5030492;28;20049;-53
2021/11/14 04:12:03;;;;;;;25.70;16.70;;;;;;;7.03;100.00;100550.38;5037996;28;20056;-52
2021/11/14 04:14:30;;;;;;;25.33;16.08;;;;;;;7.01;100.00;100553.97;5026751;28;20467;-52
2021/11/14 04:16:56;;;;;;;26.35;16.77;;;;;;;6.99;100.00;100556.66;5036570;28;20049;-54
2021/11/14 04:19:23;;;;;;;27.70;17.00;;;;;;;6.97;100.00;100557.59;5027216;28;20056;-51
2021/11/14 04:21:49;;;;;;;25.42;16.20;;;;;;;6.97;100.00;100554.97;5031791;28;20309;-52
2021/11/14 04:24:16;;;;;;;29.45;17.48;;;;;;;6.97;100.00;100557.59;5026583;28;20064;-51
2021/11/14 04:26:42;;;;;;;24.50;16.00;;;;;;;6.97;100.00;100563.72;5032868;28;20053;-54
2021/11/14 04:29:09;;;;;;;24.00;16.95;;;;;;;7.00;100.00;100557.50;5024176;28;20054;-51
2021/11/14 04:31:36;;;;;;;22.25;15.60;;;;;;;7.02;100.00;100561.81;5028302;28;20047;-53
2021/11/14 04:34:03;;;;;;;22.30;15.15;;;;;;;7.02;100.00;100564.47;5030553;28;20049;-51
2021/11/14 04:36:30;;;;;;;21.63;14.80;;;;;;;7.02;100.00;100566.22;5029581;28;20049;-51
2021/11/14 04:38:56;;;;;;;23.55;15.60;;;;;;;6.93;100.00;100551.53;5030560;28;20589;-52
2021/11/14 04:41:23;;;;;;;21.73;14.65;;;;;;;7.03;100.00;100565.31;5027395;28;20053;-51
2021/11/14 04:43:49;;;;;;;20.45;14.35;;;;;;;7.02;100.00;100567.09;5032791;28;20052;-52
2021/11/14 04:46:16;;;;;;;24.20;15.27;;;;;;;7.04;100.00;100567.03;5027561;28;20457;-52
2021/11/14 04:48:43;;;;;;;21.27;15.25;;;;;;;7.03;100.00;100574.09;5025309;28;20053;-53
2021/11/14 04:51:09;;;;;;;24.52;15.80;;;;;;;7.06;100.00;100575.78;5030377;28;20053;-51
2021/11/14 04:53:35;;;;;;;20.48;14.40;;;;;;;7.05;100.00;100574.03;5028052;28;20041;-51
2021/11/14 04:56:02;;;;;;;21.40;14.63;;;;;;;7.10;100.00;100577.38;5035516;28;20056;-51
2021/11/14 04:58:29;;;;;;;21.15;14.15;;;;;;;7.10;100.00;100573.88;5028726;28;20041;-51
2021/11/14 05:00:55;;;;;;;19.63;13.90;;;;;;;7.09;100.00;100583.56;5034015;28;20532;-52
2021/11/14 05:03:23;;;;;;;19.35;14.25;;;;;;;7.11;100.00;100579.09;5045002;28;20816;-52
2021/11/14 05:05:50;;;;;;;20.02;13.75;;;;;;;7.10;100.00;100585.28;5035706;28;20052;-53
2021/11/14 05:08:16;;;;;;;19.70;13.30;;;;;;;7.11;100.00;100587.00;5030449;28;20216;-53
2021/11/14 05:10:46;;;;;;;21.58;14.25;;;;;;;7.10;100.00;100587.91;5036770;28;20045;-53
2021/11/14 05:13:13;;;;;;;23.48;14.77;;;;;;;7.11;100.00;100591.41;5035196;28;20059;-54
2021/11/14 05:15:39;;;;;;;19.50;13.45;;;;;;;7.13;100.00;100593.09;5039716;28;20405;-53
2021/11/14 05:18:06;;;;;;;19.83;13.88;;;;;;;7.12;100.00;100599.28;5028513;28;20041;-52
2021/11/14 05:20:34;;;;;;;19.85;13.80;;;;;;;7.13;100.00;100600.13;5030161;28;20045;-55
2021/11/14 05:23:01;;;;;;;18.85;12.82;;;;;;;7.12;100.00;100606.31;5036240;28;20707;-53
2021/11/14 05:25:27;;;;;;;20.80;14.00;;;;;;;7.11;100.00;100605.44;5032596;28;20406;-52
2021/11/14 05:27:56;;;;;;;19.75;13.65;;;;;;;7.08;100.00;100610.81;5028411;28;20111;-54
2021/11/14 05:30:23;;;;;;;21.17;14.45;;;;;;;7.13;100.00;100611.53;5035811;28;20532;-52
2021/11/14 05:32:49;;;;;;;20.23;13.90;;;;;;;7.14;100.00;100618.53;5037829;28;20045;-53
2021/11/14 05:35:16;;;;;;;18.17;13.23;;;;;;;7.13;100.00;100618.56;5036085;28;20087;-52
2021/11/14 05:37:43;;;;;;;20.67;13.45;;;;;;;7.14;100.00;100615.88;5029654;28;20053;-52
2021/11/14 05:40:10;;;;;;;21.02;13.85;;;;;;;7.17;100.00;100620.22;5032336;28;20057;-53
2021/11/14 05:42:36;;;;;;;19.30;13.77;;;;;;;7.20;100.00;100631.53;5033401;28;20051;-52
2021/11/14 05:45:04;;;;;;;18.90;12.77;;;;;;;7.24;100.00;100635.78;5039113;28;20072;-53
2021/11/14 05:47:31;;;;;;;20.30;13.25;;;;;;;7.24;100.00;100634.94;5032361;28;20443;-53
2021/11/14 05:49:57;;;;;;;17.67;12.23;;;;;;;7.20;100.00;100636.78;5032308;28;20502;-52
2021/11/14 05:52:24;;;;;;;18.02;12.40;;;;;;;7.16;100.00;100640.41;5036400;28;20052;-54
2021/11/14 05:54:50;;;;;;;21.50;13.80;;;;;;;7.16;100.00;100640.41;5032583;28;20060;-52
2021/11/14 05:57:17;;;;;;;21.40;14.15;;;;;;;7.18;100.00;100650.91;5029166;28;20050;-52
2021/11/14 05:59:53;;;;;;;20.73;13.88;;;;;;;7.14;100.00;100642.22;5028920;28;20048;-53
2021/11/14 06:02:42;;;;;;;20.67;14.75;;;;;;;7.15;100.00;100646.59;5029636;28;20048;-52
2021/11/14 06:05:19;;;;;;;24.23;14.43;;;;;;;7.15;100.00;100659.75;5033257;28;20054;-52
2021/11/14 06:07:47;;;;;;;21.58;14.05;;;;;;;7.13;100.00;100658.94;5029665;28;21414;-53
2021/11/14 06:10:14;;;;;;;18.88;13.32;;;;;;;7.13;100.00;100656.28;5035986;28;20056;-55
2021/11/14 06:12:41;;;;;;;23.05;14.52;;;;;;;7.13;100.00;100660.69;5036999;28;20503;-54
2021/11/14 06:15:11;;;;;;;20.77;14.45;;;;;;;7.13;100.00;100664.19;5029969;28;20049;-52
2021/11/14 06:17:38;;;;;;;21.80;14.65;;;;;;;7.03;100.00;100649.56;5031847;28;20041;-54
2021/11/14 06:20:05;;;;;;;20.85;15.05;;;;;;;7.14;100.00;100668.56;5028125;28;20563;-52
2021/11/14 06:22:32;;;;;;;20.92;14.38;;;;;;;7.14;100.00;100676.47;5034908;28;20406;-57
2021/11/14 06:24:59;;;;;;;21.27;14.25;;;;;;;7.17;100.00;100676.38;5043764;28;20075;-53
2021/11/14 06:27:25;;;;;;;19.00;13.30;;;;;;;7.20;100.00;100685.97;5035985;28;20410;-53
2021/11/14 06:29:52;;;;;;;22.67;15.05;;;;;;;7.25;100.00;100684.03;5027414;28;20048;-56
2021/11/14 06:32:18;;;;;;;19.77;13.95;;;;;;;7.21;100.00;100683.28;5036539;28;20055;-51
2021/11/14 06:34:45;;;;;;;18.23;13.80;;;;;;;7.20;100.00;100691.22;5032909;28;20041;-54
2021/11/14 06:37:13;;;;;;;21.02;13.82;;;;;;;7.23;100.00;100699.91;5038144;28;20183;-54
2021/11/14 06:39:39;;;;;;;20.02;13.38;;;;;;;7.24;100.00;100704.25;5031488;28;20049;-51
2021/11/14 06:42:07;;;;;;;21.85;14.25;;;;;;;7.24;100.00;100720.06;5031657;28;20045;-52
2021/11/14 06:44:34;;;;;;;18.48;14.20;;;;;;;7.24;100.00;100717.41;5030220;28;20041;-53
2021/11/14 06:47:01;;;;;;;18.73;13.07;;;;;;;7.23;100.00;100726.25;5032580;28;20038;-52
2021/11/14 06:49:28;;;;;;;17.27;12.43;;;;;;;7.26;100.00;100725.28;5027092;28;22274;-53
2021/11/14 06:51:54;;;;;;;17.90;13.20;;;;;;;7.24;100.00;100722.69;5027697;28;20045;-54
2021/11/14 06:54:21;;;;;;;17.90;13.27;;;;;;;7.21;100.00;100728.06;5033025;28;20052;-52
2021/11/14 06:56:47;;;;;;;18.48;12.90;;;;;;;7.11;100.00;100713.41;5033020;28;20053;-52
2021/11/14 06:59:14;;;;;;;22.17;14.35;;;;;;;7.22;100.00;100737.69;5026853;28;20072;-52
2021/11/14 07:01:40;;;;;;;20.17;12.98;;;;;;;7.04;100.00;100711.88;5038960;28;20473;-53
2021/11/14 07:04:07;;;;;;;19.23;13.68;;;;;;;7.22;100.00;100737.69;5035944;28;20059;-52
2021/11/14 07:06:34;;;;;;;20.67;13.85;;;;;;;7.27;100.00;100743.69;5028311;28;20065;-53
2021/11/14 07:09:00;;;;;;;19.20;13.55;;;;;;;7.28;100.00;100745.41;5033915;28;20490;-53
2021/11/14 07:11:27;;;;;;;20.40;13.57;;;;;;;7.28;100.00;100750.69;5031892;28;20239;-51
2021/11/14 07:13:55;;;;;;;18.33;13.32;;;;;;;7.31;100.00;100750.59;5035300;28;20065;-52
2021/11/14 07:16:22;;;;;;;20.80;14.27;;;;;;;7.33;100.00;100751.44;5030413;28;20048;-54
2021/11/14 07:18:48;;;;;;;18.15;13.23;;;;;;;7.33;100.00;100753.19;5033474;28;20041;-53
2021/11/14 07:21:15;;;;;;;18.20;13.23;;;;;;;7.34;100.00;100752.28;5037580;28;20072;-52
2021/11/14 07:23:41;;;;;;;18.23;13.25;;;;;;;7.34;100.00;100761.06;5030798;28;20076;-52
2021/11/14 07:26:08;;;;;;;18.35;13.48;;;;;;;7.35;100.00;100765.44;5038018;28;20428;-54
2021/11/14 07:28:34;;;;;;;19.15;13.23;;;;;;;7.26;100.00;100751.63;5027666;28;20060;-53
2021/11/14 07:31:01;;;;;;;17.38;12.27;;;;;;;7.38;100.00;100773.25;5042115;28;20037;-53
2021/11/14 07:33:27;;;;;;;17.55;12.82;;;;;;;7.38;100.00;100769.75;5034629;28;20049;-54
2021/11/14 07:35:54;;;;;;;19.17;13.90;;;;;;;7.40;100.00;100776.69;5029416;28;20068;-52
2021/11/14 07:38:21;;;;;;;19.17;14.05;;;;;;;7.42;100.00;100781.91;5032157;28;20048;-54
2021/11/14 07:40:47;;;;;;;15.95;12.30;;;;;;;7.47;100.00;100789.69;5028473;28;20056;-52
2021/11/14 07:43:14;;;;;;;20.42;13.23;;;;;;;7.50;100.00;100797.53;5030949;28;20045;-52
2021/11/14 07:45:41;;;;;;;16.33;12.65;;;;;;;7.50;100.00;100793.13;5034262;28;20047;-53
2021/11/14 07:48:10;;;;;;;17.98;13.07;;;;;;;7.50;100.00;100801.03;5030657;28;20038;-53
2021/11/14 07:50:37;;;;;;;15.95;12.15;;;;;;;7.51;100.00;100799.25;5027362;28;20045;-53
2021/11/14 07:53:04;;;;;;;16.38;11.77;;;;;;;7.50;100.00;100793.13;5033805;28;20049;-52
2021/11/14 07:55:31;;;;;;;17.10;12.05;;;;;;;7.56;100.00;100803.47;5029690;28;20060;-53
2021/11/14 07:57:59;;;;;;;17.15;12.48;;;;;;;7.56;100.00;100806.09;5028841;28;20484;-53
2021/11/14 08:00:25;;;;;;;15.25;12.25;;;;;;;7.58;100.00;100804.28;5026329;28;20041;-54
2021/11/14 08:02:52;;;;;;;15.00;12.32;;;;;;;7.70;100.00;100805.75;5028518;28;20052;-52
2021/11/14 08:05:19;;;;;;;17.45;12.18;;;;;;;7.73;100.00;100809.13;5034894;28;20084;-51
2021/11/14 08:07:47;;;;;;;27.70;12.98;;;;;;;7.85;100.00;100805.28;5029052;28;20044;-53
2021/11/14 08:10:15;;;;;;;18.08;12.52;;;;;;;7.95;100.00;100812.00;5026540;28;20382;-52
2021/11/14 08:12:41;;;;;;;18.02;12.20;;;;;;;7.96;100.00;100810.25;5031836;28;20041;-53
2021/11/14 08:15:10;;;;;;;16.83;12.40;;;;;;;8.04;100.00;100813.50;5033709;28;20560;-52
2021/11/14 08:17:37;;;;;;;16.10;11.55;;;;;;;8.04;100.00;100814.38;5032290;28;20052;-53
2021/11/14 08:20:04;;;;;;;16.08;11.43;;;;;;;8.02;100.00;100816.22;5028481;28;20056;-51
2021/11/14 08:22:31;;;;;;;16.60;12.18;;;;;;;8.04;100.00;100809.09;5034445;28;20536;-52
2021/11/14 08:25:00;;;;;;;16.40;11.52;;;;;;;8.01;100.00;100809.22;5034709;28;20057;-52
2021/11/14 08:27:30;;;;;;;15.05;11.63;;;;;;;8.02;100.00;100816.22;5027811;28;20044;-53
2021/11/14 08:29:58;;;;;;;16.27;12.50;;;;;;;8.00;100.00;100806.59;5027513;28;20045;-52
2021/11/14 08:32:26;;;;;;;16.45;12.88;;;;;;;8.01;100.00;100805.69;5036202;28;20048;-51
2021/11/14 08:34:53;;;;;;;17.00;12.35;;;;;;;8.06;100.00;100814.31;5033861;28;20077;-53
2021/11/14 08:37:19;;;;;;;18.30;13.00;;;;;;;8.09;100.00;100807.19;5031075;28;20044;-52
2021/11/14 08:39:46;;;;;;;18.35;13.20;;;;;;;8.11;100.00;100820.34;5026066;28;20042;-56
2021/11/14 08:42:12;;;;;;;17.77;12.80;;;;;;;8.14;100.00;100814.09;5031109;28;20053;-52
2021/11/14 08:44:39;;;;;;;17.67;12.98;;;;;;;8.18;100.00;100821.03;5034485;28;20046;-53
2021/11/14 08:47:06;;;;;;;18.35;12.35;;;;;;;8.19;100.00;100817.44;5034982;28;20044;-52
2021/11/14 08:49:32;;;;;;;17.35;13.02;;;;;;;8.18;100.00;100821.88;5026208;28;20048;-53
2021/11/14 08:51:59;;;;;;;18.58;13.05;;;;;;;8.24;100.00;100831.38;5035365;28;20045;-53
2021/11/14 08:54:26;;;;;;;21.27;13.75;;;;;;;8.30;100.00;100833.84;5034809;28;20049;-52
2021/11/14 08:56:53;;;;;;;17.80;13.27;;;;;;;8.32;100.00;100834.69;5031377;28;20038;-53
2021/11/14 08:59:20;;;;;;;17.58;12.65;;;;;;;8.32;100.00;100834.69;5028259;28;20046;-53
2021/11/14 09:01:46;;;;;;;17.67;13.75;;;;;;;8.35;100.00;100840.72;5028465;28;20379;-53
2021/11/14 09:04:13;;;;;;;15.85;12.77;;;;;;;8.42;100.00;100844.91;5029447;28;20053;-51
2021/11/14 09:06:40;;;;;;;19.13;14.23;;;;;;;8.47;100.00;100839.50;5033241;28;20052;-52
2021/11/14 09:09:10;;;;;;;19.05;13.82;;;;;;;8.54;100.00;100842.78;5028955;28;20515;-55
2021/11/14 09:11:42;;;;;;;18.45;13.55;;;;;;;8.58;100.00;100845.28;5028432;28;20059;-53
2021/11/14 09:14:09;;;;;;;21.13;14.35;;;;;;;8.62;100.00;100852.22;5030979;28;20050;-51
2021/11/14 09:16:36;;;;;;;19.73;14.25;;;;;;;8.69;100.00;100851.09;5029234;28;20045;-51
2021/11/14 09:19:05;;;;;;;19.25;14.25;;;;;;;8.68;100.00;100848.47;5038073;28;20063;-50
2021/11/14 09:21:33;;;;;;;19.92;14.63;;;;;;;8.75;100.00;100850.03;5030610;28;20053;-52
2021/11/14 09:24:00;;;;;;;22.48;15.07;;;;;;;8.87;99.10;100859.31;5031947;28;20050;-53
2021/11/14 09:26:26;;;;;;;18.75;14.50;;;;;;;8.88;99.09;100861.91;5027601;28;20041;-52
2021/11/14 09:28:53;;;;;;;18.27;14.07;;;;;;;8.91;99.80;100856.53;5029741;28;20047;-53
2021/11/14 09:31:19;;;;;;;18.25;13.50;;;;;;;9.00;99.26;100855.38;5030652;28;20046;-54
2021/11/14 09:33:46;;;;;;;19.50;13.73;;;;;;;9.06;99.04;100863.09;5032361;28;20053;-52
2021/11/14 09:36:13;;;;;;;17.55;13.25;;;;;;;9.08;98.69;100863.91;5033573;28;20056;-51
2021/11/14 09:38:40;;;;;;;17.40;13.82;;;;;;;9.12;98.44;100874.34;5031039;28;20494;-55
2021/11/14 09:41:08;;;;;;;18.27;14.27;;;;;;;9.18;97.33;100873.25;5027771;28;20084;-51
2021/11/14 09:43:36;;;;;;;18.65;13.70;;;;;;;9.18;97.06;100869.75;5033170;28;20053;-53
2021/11/14 09:46:03;;;;;;;17.27;13.50;;;;;;;9.11;96.04;100859.41;5039342;28;20507;-52
2021/11/14 09:48:30;;;;;;;15.88;12.65;;;;;;;9.21;96.11;100870.50;5035938;28;20499;-52
2021/11/14 09:50:58;;;;;;;16.33;12.82;;;;;;;9.25;96.04;100882.72;5028660;28;20042;-53
2021/11/14 09:53:32;;;;;;;16.15;12.82;;;;;;;9.27;96.40;100880.88;5037382;28;20045;-53
2021/11/14 09:56:01;;;;;;;17.00;13.18;;;;;;;9.37;96.22;100884.06;5031430;28;20481;-52
2021/11/14 09:58:27;;;;;;;16.10;12.77;;;;;;;9.40;95.83;100889.25;5032860;28;20553;-52
2021/11/14 10:00:55;;;;;;;14.57;12.32;;;;;;;9.44;95.38;100891.72;5034273;28;20049;-53
2021/11/14 10:03:22;;;;;;;15.57;12.15;;;;;;;9.45;94.51;100885.50;5036073;28;20277;-52
2021/11/14 10:05:49;;;;;;;14.95;12.32;;;;;;;9.46;94.29;100895.19;5032372;28;20049;-52
2021/11/14 10:08:19;;;;;;;15.23;12.48;;;;;;;9.47;93.20;100891.63;5034638;28;20044;-54
2021/11/14 10:10:47;;;;;;;16.00;12.70;;;;;;;9.44;94.60;100891.72;5031143;28;20046;-53
2021/11/14 10:13:22;;;;;;;17.85;12.48;;;;;;;9.48;94.85;100900.41;5035369;28;20148;-54
2021/11/14 10:15:52;;;;;;;15.43;12.38;;;;;;;9.50;94.20;100895.94;5015665;28;20045;-52
2021/11/14 10:18:21;;;;;;;16.23;12.93;;;;;;;9.55;93.09;100898.44;5036383;28;20053;-52
2021/11/14 10:20:51;;;;;;;17.45;13.07;;;;;;;9.54;92.25;100894.06;5015184;28;20915;-52
2021/11/14 10:23:19;;;;;;;15.55;12.52;;;;;;;9.54;92.57;100897.56;5040063;28;20047;-52
2021/11/14 10:25:47;;;;;;;16.40;12.57;;;;;;;9.61;93.16;100898.19;5036142;28;20041;-51
2021/11/14 10:28:14;;;;;;;15.85;12.65;;;;;;;9.65;92.90;100897.19;5038411;28;20063;-53
2021/11/14 10:30:44;;;;;;;15.73;12.82;;;;;;;9.73;93.46;100900.44;5027546;28;20049;-53
2021/11/14 10:33:12;;;;;;;;;;;;;;;9.83;91.74;100899.19;5034282;28;20053;-52
2021/11/14 10:35:41;;;;;;;15.02;12.13;;;;;;;9.92;92.05;100893.53;5037367;28;19931;-53
2021/11/14 10:38:15;;;;;;;16.98;13.32;;;;;;;10.07;90.29;100892.97;5035809;28;20056;-51
2021/11/14 10:40:49;;;;;;;16.30;12.60;;;;;;;10.20;89.31;100896.09;5029231;28;20045;-53
2021/11/14 10:43:17;;;;;;;14.13;11.82;;;;;;;10.28;89.80;100895.78;5046307;28;20052;-53
2021/11/14 10:45:44;;;;;;;15.07;12.13;;;;;;;10.34;89.03;100895.56;5030002;28;20049;-52
2021/11/14 10:48:17;;;;;;;15.73;12.43;;;;;;;10.29;88.79;100894.88;5036987;28;20052;-52
2021/11/14 10:50:46;;;;;;;15.48;12.27;;;;;;;10.26;88.80;100898.50;5028674;28;20056;-53
2021/11/14 10:53:16;;;;;;;15.63;12.07;;;;;;;10.27;89.17;100894.94;5035438;28;20411;-54
2021/11/14 10:55:45;;;;;;;15.75;12.10;;;;;;;10.27;89.24;100894.94;5036633;28;20053;-55
2021/11/14 10:58:13;;;;;;;15.95;12.82;;;;;;;10.27;89.43;100897.56;5040159;28;20232;-51
2021/11/14 11:00:42;;;;;;;17.08;12.48;;;;;;;10.30;89.00;100892.16;5029598;28;20045;-52
2021/11/14 11:03:10;;;;;;;15.35;12.23;;;;;;;10.35;87.77;100898.16;5040951;28;20796;-53
2021/11/14 11:05:37;;;;;;;14.82;12.18;;;;;;;10.31;87.59;100906.28;5036007;28;20515;-52
2021/11/14 11:08:07;;;;;;;16.30;12.27;;;;;;;10.28;87.75;100909.03;5039355;28;20524;-53
2021/11/14 11:10:40;;;;;;;17.73;11.97;;;;;;;10.19;88.79;100911.09;5031765;28;20053;-52